sensor_id;sensor_type;location;lat;lon;timestamp;pressure;altitude;pressure_sealevel;temperature;humidity
15405;BME280;7801;48.124;11.590;2022-11-25T00:01:12;95406.34;;;4.53;91.72
15405;BME280;7801;48.124;11.590;2022-11-25T00:03:59;95408.16;;;4.47;91.54
15405;BME280;7801;48.124;11.590;2022-11-25T00:06:28;95410.31;;;4.55;91.22
15405;BME280;7801;48.124;11.590;2022-11-25T00:09:05;95408.72;;;4.54;90.78
15405;BME280;7801;48.124;11.590;2022-11-25T00:11:38;95415.13;;;4.68;89.73
15405;BME280;7801;48.124;11.590;2022-11-25T00:14:20;95415.81;;;4.54;90.23
15405;BME280;7801;48.124;11.590;2022-11-25T00:16:49;95428.37;;;4.46;89.98
15405;BME280;7801;48.124;11.590;2022-11-25T00:19:14;95427.03;;;4.44;90.55
15405;BME280;7801;48.124;11.590;2022-11-25T00:21:41;95426.28;;;4.48;91.07
15405;BME280;7801;48.124;11.590;2022-11-25T00:24:28;95422.44;;;4.66;90.42
15405;BME280;7801;48.124;11.590;2022-11-25T00:26:55;95417.16;;;4.56;90.40
15405;BME280;7801;48.124;11.590;2022-11-25T00:29:21;95415.19;;;4.41;90.42
15405;BME280;7801;48.124;11.590;2022-11-25T00:31:48;95419.53;;;4.26;91.01
15405;BME280;7801;48.124;11.590;2022-11-25T00:34:16;95404.63;;;4.31;91.42
15405;BME280;7801;48.124;11.590;2022-11-25T00:36:44;95408.00;;;4.27;90.83
15405;BME280;7801;48.124;11.590;2022-11-25T00:39:16;95415.13;;;4.31;90.57
15405;BME280;7801;48.124;11.590;2022-11-25T00:41:43;95409.53;;;4.55;90.30
15405;BME280;7801;48.124;11.590;2022-11-25T00:44:28;95409.41;;;4.39;90.49
15405;BME280;7801;48.124;11.590;2022-11-25T00:47:12;95413.94;;;4.49;90.32
15405;BME280;7801;48.124;11.590;2022-11-25T00:49:41;95410.81;;;4.52;90.30
15405;BME280;7801;48.124;11.590;2022-11-25T00:52:09;95419.69;;;4.46;90.21
15405;BME280;7801;48.124;11.590;2022-11-25T00:54:39;95420.94;;;4.38;90.73
15405;BME280;7801;48.124;11.590;2022-11-25T00:57:04;95421.72;;;4.34;90.86
15405;BME280;7801;48.124;11.590;2022-11-25T00:59:32;95426.00;;;4.45;89.90
15405;BME280;7801;48.124;11.590;2022-11-25T01:02:01;95419.25;;;4.54;89.13
15405;BME280;7801;48.124;11.590;2022-11-25T01:04:27;95409.34;;;4.71;88.57
15405;BME280;7801;48.124;11.590;2022-11-25T01:06:55;95412.50;;;4.68;88.83
15405;BME280;7801;48.124;11.590;2022-11-25T01:09:25;95414.47;;;4.51;89.39
15405;BME280;7801;48.124;11.590;2022-11-25T01:11:53;95410.38;;;4.65;88.60
15405;BME280;7801;48.124;11.590;2022-11-25T01:14:22;95411.91;;;4.56;88.73
15405;BME280;7801;48.124;11.590;2022-11-25T01:16:50;95409.84;;;4.68;88.75
15405;BME280;7801;48.124;11.590;2022-11-25T01:19:20;95407.34;;;4.46;88.95
15405;BME280;7801;48.124;11.590;2022-11-25T01:21:45;95400.81;;;4.49;88.61
15405;BME280;7801;48.124;11.590;2022-11-25T01:24:12;95398.78;;;4.24;89.22
15405;BME280;7801;48.124;11.590;2022-11-25T01:26:42;95393.88;;;4.38;89.37
15405;BME280;7801;48.124;11.590;2022-11-25T01:29:13;95391.25;;;4.38;89.29
15405;BME280;7801;48.124;11.590;2022-11-25T01:31:41;95394.97;;;4.42;88.84
15405;BME280;7801;48.124;11.590;2022-11-25T01:34:11;95397.50;;;4.27;89.09
15405;BME280;7801;48.124;11.590;2022-11-25T01:36:37;95398.88;;;4.34;89.37
15405;BME280;7801;48.124;11.590;2022-11-25T01:39:04;95399.13;;;4.38;88.81
15405;BME280;7801;48.124;11.590;2022-11-25T01:41:34;95399.66;;;4.35;89.13
15405;BME280;7801;48.124;11.590;2022-11-25T01:44:25;95407.38;;;4.14;89.45
15405;BME280;7801;48.124;11.590;2022-11-25T01:50:03;95415.03;;;4.21;89.26
15405;BME280;7801;48.124;11.590;2022-11-25T01:52:49;95405.03;;;4.50;88.40
15405;BME280;7801;48.124;11.590;2022-11-25T01:55:29;95402.34;;;4.45;88.31
15405;BME280;7801;48.124;11.590;2022-11-25T01:58:10;95396.78;;;4.36;88.93
15405;BME280;7801;48.124;11.590;2022-11-25T02:00:38;95402.16;;;4.20;89.60
15405;BME280;7801;48.124;11.590;2022-11-25T02:03:06;95401.25;;;4.36;88.34
15405;BME280;7801;48.124;11.590;2022-11-25T02:06:02;95403.50;;;4.22;88.60
15405;BME280;7801;48.124;11.590;2022-11-25T02:08:32;95408.34;;;4.03;89.55
15405;BME280;7801;48.124;11.590;2022-11-25T02:11:02;95398.72;;;4.14;89.63
15405;BME280;7801;48.124;11.590;2022-11-25T02:13:31;95395.25;;;4.08;89.65
15405;BME280;7801;48.124;11.590;2022-11-25T02:15:57;95388.31;;;3.97;89.86
15405;BME280;7801;48.124;11.590;2022-11-25T02:18:26;95392.91;;;3.80;90.35
15405;BME280;7801;48.124;11.590;2022-11-25T02:21:02;95387.97;;;3.84;90.31
15405;BME280;7801;48.124;11.590;2022-11-25T02:26:03;95389.19;;;3.76;90.96
15405;BME280;7801;48.124;11.590;2022-11-25T02:28:32;95398.94;;;3.54;91.65
15405;BME280;7801;48.124;11.590;2022-11-25T02:30:59;95391.13;;;3.86;91.47
15405;BME280;7801;48.124;11.590;2022-11-25T02:33:28;95385.69;;;3.92;90.82
15405;BME280;7801;48.124;11.590;2022-11-25T02:35:59;95387.38;;;4.08;90.04
15405;BME280;7801;48.124;11.590;2022-11-25T02:38:44;95376.41;;;4.17;89.17
15405;BME280;7801;48.124;11.590;2022-11-25T02:41:27;95383.63;;;3.99;89.63
15405;BME280;7801;48.124;11.590;2022-11-25T02:43:56;95384.25;;;4.11;89.63
15405;BME280;7801;48.124;11.590;2022-11-25T02:46:24;95388.06;;;3.94;90.28
15405;BME280;7801;48.124;11.590;2022-11-25T02:48:56;95392.66;;;3.82;90.66
15405;BME280;7801;48.124;11.590;2022-11-25T02:51:34;95399.34;;;3.94;90.37
15405;BME280;7801;48.124;11.590;2022-11-25T02:54:00;95393.53;;;4.24;89.56
15405;BME280;7801;48.124;11.590;2022-11-25T02:56:28;95389.47;;;4.06;89.43
15405;BME280;7801;48.124;11.590;2022-11-25T02:59:11;95388.88;;;3.99;89.66
15405;BME280;7801;48.124;11.590;2022-11-25T03:01:39;95389.91;;;3.98;89.41
15405;BME280;7801;48.124;11.590;2022-11-25T03:04:06;95391.78;;;3.71;90.70
15405;BME280;7801;48.124;11.590;2022-11-25T03:06:34;95393.00;;;3.90;90.60
15405;BME280;7801;48.124;11.590;2022-11-25T03:09:00;95400.22;;;4.05;90.45
15405;BME280;7801;48.124;11.590;2022-11-25T03:11:28;95392.78;;;3.97;89.97
15405;BME280;7801;48.124;11.590;2022-11-25T03:14:12;95398.44;;;4.10;89.68
15405;BME280;7801;48.124;11.590;2022-11-25T03:16:39;95386.78;;;4.33;88.75
15405;BME280;7801;48.124;11.590;2022-11-25T03:19:07;95383.88;;;3.98;89.86
15405;BME280;7801;48.124;11.590;2022-11-25T03:21:35;95388.44;;;4.07;89.96
15405;BME280;7801;48.124;11.590;2022-11-25T03:24:02;95385.06;;;4.12;89.45
15405;BME280;7801;48.124;11.590;2022-11-25T03:26:29;95388.31;;;3.97;89.68
15405;BME280;7801;48.124;11.590;2022-11-25T03:28:57;95390.31;;;4.12;89.87
15405;BME280;7801;48.124;11.590;2022-11-25T03:31:23;95387.44;;;4.13;89.45
15405;BME280;7801;48.124;11.590;2022-11-25T03:33:49;95385.72;;;4.29;89.06
15405;BME280;7801;48.124;11.590;2022-11-25T03:36:15;95389.37;;;4.28;88.83
15405;BME280;7801;48.124;11.590;2022-11-25T03:38:41;95385.16;;;3.95;89.25
15405;BME280;7801;48.124;11.590;2022-11-25T03:41:09;95384.09;;;3.64;91.52
15405;BME280;7801;48.124;11.590;2022-11-25T03:43:38;95388.56;;;3.64;91.70
15405;BME280;7801;48.124;11.590;2022-11-25T03:46:04;95394.09;;;3.67;91.80
15405;BME280;7801;48.124;11.590;2022-11-25T03:48:32;95386.12;;;3.84;91.04
15405;BME280;7801;48.124;11.590;2022-11-25T03:50:58;95391.34;;;4.11;90.08
15405;BME280;7801;48.124;11.590;2022-11-25T03:53:25;95390.47;;;4.32;88.93
15405;BME280;7801;48.124;11.590;2022-11-25T03:55:52;95390.37;;;4.22;89.41
15405;BME280;7801;48.124;11.590;2022-11-25T03:58:18;95385.25;;;4.42;88.47
15405;BME280;7801;48.124;11.590;2022-11-25T04:00:44;95392.03;;;4.33;88.34
15405;BME280;7801;48.124;11.590;2022-11-25T04:03:10;95392.94;;;4.17;89.07
15405;BME280;7801;48.124;11.590;2022-11-25T04:05:36;95394.03;;;4.21;89.20
15405;BME280;7801;48.124;11.590;2022-11-25T04:08:02;95396.16;;;4.24;88.95
15405;BME280;7801;48.124;11.590;2022-11-25T04:10:29;95400.66;;;4.29;88.84
15405;BME280;7801;48.124;11.590;2022-11-25T04:12:58;95400.38;;;4.25;88.94
15405;BME280;7801;48.124;11.590;2022-11-25T04:15:27;95400.72;;;4.39;88.47
15405;BME280;7801;48.124;11.590;2022-11-25T04:17:53;95403.19;;;4.51;87.96
15405;BME280;7801;48.124;11.590;2022-11-25T04:20:20;95407.19;;;4.63;87.37
15405;BME280;7801;48.124;11.590;2022-11-25T04:22:45;95402.34;;;4.45;87.92
15405;BME280;7801;48.124;11.590;2022-11-25T04:25:12;95407.66;;;4.50;87.63
15405;BME280;7801;48.124;11.590;2022-11-25T04:27:37;95409.53;;;4.55;87.96
15405;BME280;7801;48.124;11.590;2022-11-25T04:30:05;95412.94;;;4.60;87.37
15405;BME280;7801;48.124;11.590;2022-11-25T04:32:30;95405.53;;;4.47;88.33
15405;BME280;7801;48.124;11.590;2022-11-25T04:34:57;95407.56;;;4.40;88.39
15405;BME280;7801;48.124;11.590;2022-11-25T04:37:24;95405.97;;;4.39;89.07
15405;BME280;7801;48.124;11.590;2022-11-25T04:39:52;95411.75;;;4.36;88.56
15405;BME280;7801;48.124;11.590;2022-11-25T04:42:19;95426.28;;;4.48;88.19
15405;BME280;7801;48.124;11.590;2022-11-25T04:45:06;95424.75;;;4.58;87.54
15405;BME280;7801;48.124;11.590;2022-11-25T04:47:52;95411.38;;;4.59;87.81
15405;BME280;7801;48.124;11.590;2022-11-25T04:50:21;95418.72;;;4.57;88.63
15405;BME280;7801;48.124;11.590;2022-11-25T04:52:48;95417.09;;;4.51;88.25
15405;BME280;7801;48.124;11.590;2022-11-25T04:55:18;95424.84;;;4.31;88.69
15405;BME280;7801;48.124;11.590;2022-11-25T04:57:44;95425.16;;;4.39;88.97
15405;BME280;7801;48.124;11.590;2022-11-25T05:00:10;95419.94;;;4.44;88.53
15405;BME280;7801;48.124;11.590;2022-11-25T05:02:38;95422.13;;;4.58;87.95
15405;BME280;7801;48.124;11.590;2022-11-25T05:05:05;95429.16;;;4.47;88.22
15405;BME280;7801;48.124;11.590;2022-11-25T05:07:36;95422.75;;;4.33;89.23
15405;BME280;7801;48.124;11.590;2022-11-25T05:10:05;95423.84;;;4.42;88.84
15405;BME280;7801;48.124;11.590;2022-11-25T05:12:32;95417.59;;;4.48;88.61
15405;BME280;7801;48.124;11.590;2022-11-25T05:14:58;95412.81;;;4.40;88.83
15405;BME280;7801;48.124;11.590;2022-11-25T05:17:29;95408.66;;;4.44;89.14
15405;BME280;7801;48.124;11.590;2022-11-25T05:19:57;95420.28;;;4.21;89.23
15405;BME280;7801;48.124;11.590;2022-11-25T05:22:34;95419.66;;;4.41;88.58
15405;BME280;7801;48.124;11.590;2022-11-25T05:25:03;95420.09;;;4.28;88.90
15405;BME280;7801;48.124;11.590;2022-11-25T05:27:33;95428.31;;;4.36;88.59
15405;BME280;7801;48.124;11.590;2022-11-25T05:30:06;95418.59;;;4.42;88.19
15405;BME280;7801;48.124;11.590;2022-11-25T05:32:32;95422.81;;;4.43;88.09
15405;BME280;7801;48.124;11.590;2022-11-25T05:35:00;95413.59;;;4.40;88.46
15405;BME280;7801;48.124;11.590;2022-11-25T05:37:26;95429.50;;;4.61;88.04
15405;BME280;7801;48.124;11.590;2022-11-25T05:39:52;95431.78;;;4.47;87.93
15405;BME280;7801;48.124;11.590;2022-11-25T05:42:18;95421.56;;;4.51;87.74
15405;BME280;7801;48.124;11.590;2022-11-25T05:44:44;95424.09;;;4.40;88.43
15405;BME280;7801;48.124;11.590;2022-11-25T05:47:10;95436.50;;;4.13;88.68
15405;BME280;7801;48.124;11.590;2022-11-25T05:49:38;95429.97;;;4.16;89.47
15405;BME280;7801;48.124;11.590;2022-11-25T05:52:05;95419.87;;;4.34;89.08
15405;BME280;7801;48.124;11.590;2022-11-25T05:54:30;95422.16;;;4.26;88.77
15405;BME280;7801;48.124;11.590;2022-11-25T05:56:57;95424.19;;;4.13;89.27
15405;BME280;7801;48.124;11.590;2022-11-25T05:59:24;95427.37;;;4.21;89.51
15405;BME280;7801;48.124;11.590;2022-11-25T06:02:01;95433.38;;;4.48;88.55
15405;BME280;7801;48.124;11.590;2022-11-25T06:04:27;95455.12;;;4.11;89.22
15405;BME280;7801;48.124;11.590;2022-11-25T06:06:53;95451.53;;;4.23;89.32
15405;BME280;7801;48.124;11.590;2022-11-25T06:09:19;95446.94;;;4.40;88.83
15405;BME280;7801;48.124;11.590;2022-11-25T06:11:48;95442.09;;;4.59;87.44
15405;BME280;7801;48.124;11.590;2022-11-25T06:14:16;95441.97;;;4.75;86.64
15405;BME280;7801;48.124;11.590;2022-11-25T06:16:46;95438.72;;;4.63;86.89
15405;BME280;7801;48.124;11.590;2022-11-25T06:19:12;95434.75;;;4.56;88.02
15405;BME280;7801;48.124;11.590;2022-11-25T06:21:39;95433.56;;;4.36;88.56
15405;BME280;7801;48.124;11.590;2022-11-25T06:24:08;95433.13;;;4.49;88.67
15405;BME280;7801;48.124;11.590;2022-11-25T06:26:35;95435.75;;;4.18;89.21
15405;BME280;7801;48.124;11.590;2022-11-25T06:29:01;95430.25;;;4.51;88.66
15405;BME280;7801;48.124;11.590;2022-11-25T06:31:27;95424.31;;;4.71;87.47
15405;BME280;7801;48.124;11.590;2022-11-25T06:33:53;95424.38;;;4.81;86.92
15405;BME280;7801;48.124;11.590;2022-11-25T06:36:22;95421.41;;;4.67;87.27
15405;BME280;7801;48.124;11.590;2022-11-25T06:38:58;95428.81;;;4.33;88.11
15405;BME280;7801;48.124;11.590;2022-11-25T06:41:27;95435.19;;;4.10;90.12
15405;BME280;7801;48.124;11.590;2022-11-25T06:43:54;95439.22;;;4.23;89.76
15405;BME280;7801;48.124;11.590;2022-11-25T06:46:21;95432.22;;;4.39;89.03
15405;BME280;7801;48.124;11.590;2022-11-25T06:48:47;95433.63;;;4.46;88.73
15405;BME280;7801;48.124;11.590;2022-11-25T06:51:15;95435.06;;;4.64;88.11
15405;BME280;7801;48.124;11.590;2022-11-25T06:53:41;95436.59;;;4.60;87.66
15405;BME280;7801;48.124;11.590;2022-11-25T06:56:20;95441.59;;;4.62;87.57
15405;BME280;7801;48.124;11.590;2022-11-25T06:59:03;95449.56;;;4.40;88.60
15405;BME280;7801;48.124;11.590;2022-11-25T07:01:33;95442.72;;;4.34;87.94
15405;BME280;7801;48.124;11.590;2022-11-25T07:04:11;95439.00;;;4.30;89.10
15405;BME280;7801;48.124;11.590;2022-11-25T07:06:37;95420.72;;;5.34;100.00
15405;BME280;7801;48.124;11.590;2022-11-25T07:09:04;95423.00;;;5.93;100.00
15405;BME280;7801;48.124;11.590;2022-11-25T07:11:33;95426.44;;;6.65;100.00
15405;BME280;7801;48.124;11.590;2022-11-25T07:14:03;95430.91;;;6.79;100.00
15405;BME280;7801;48.124;11.590;2022-11-25T07:16:29;95430.84;;;6.95;95.34
15405;BME280;7801;48.124;11.590;2022-11-25T07:19:07;95438.19;;;7.13;94.55
15405;BME280;7801;48.124;11.590;2022-11-25T07:21:33;95437.66;;;7.21;91.87
15405;BME280;7801;48.124;11.590;2022-11-25T07:24:04;95446.41;;;6.91;79.99
15405;BME280;7801;48.124;11.590;2022-11-25T07:26:34;95445.69;;;6.55;79.63
15405;BME280;7801;48.124;11.590;2022-11-25T07:29:06;95450.06;;;5.78;81.61
15405;BME280;7801;48.124;11.590;2022-11-25T07:31:37;95451.81;;;5.63;82.16
15405;BME280;7801;48.124;11.590;2022-11-25T07:34:12;95453.91;;;5.50;83.07
15405;BME280;7801;48.124;11.590;2022-11-25T07:36:40;95456.00;;;5.48;83.24
15405;BME280;7801;48.124;11.590;2022-11-25T07:39:10;95449.38;;;5.41;83.42
15405;BME280;7801;48.124;11.590;2022-11-25T07:41:37;95451.22;;;5.35;83.96
15405;BME280;7801;48.124;11.590;2022-11-25T07:44:05;95453.84;;;5.40;84.04
15405;BME280;7801;48.124;11.590;2022-11-25T07:46:35;95459.31;;;5.18;83.86
15405;BME280;7801;48.124;11.590;2022-11-25T07:49:07;95457.78;;;5.33;84.06
15405;BME280;7801;48.124;11.590;2022-11-25T07:51:37;95462.72;;;5.24;84.06
15405;BME280;7801;48.124;11.590;2022-11-25T07:54:07;95456.94;;;5.22;84.61
15405;BME280;7801;48.124;11.590;2022-11-25T07:56:37;95460.16;;;5.34;84.86
15405;BME280;7801;48.124;11.590;2022-11-25T07:59:09;95461.09;;;5.13;85.32
15405;BME280;7801;48.124;11.590;2022-11-25T08:01:39;95462.72;;;5.24;85.01
15405;BME280;7801;48.124;11.590;2022-11-25T08:04:11;95462.84;;;5.49;83.91
15405;BME280;7801;48.124;11.590;2022-11-25T08:06:43;95473.56;;;5.33;84.45
15405;BME280;7801;48.124;11.590;2022-11-25T08:09:12;95478.03;;;5.32;84.22
15405;BME280;7801;48.124;11.590;2022-11-25T08:11:45;95477.28;;;5.42;83.94
15405;BME280;7801;48.124;11.590;2022-11-25T08:14:15;95480.22;;;5.50;83.36
15405;BME280;7801;48.124;11.590;2022-11-25T08:16:42;95475.47;;;5.47;83.79
15405;BME280;7801;48.124;11.590;2022-11-25T08:19:11;95471.91;;;5.16;83.76
15405;BME280;7801;48.124;11.590;2022-11-25T08:21:38;95469.78;;;5.13;84.31
15405;BME280;7801;48.124;11.590;2022-11-25T08:24:06;95461.88;;;5.08;85.10
15405;BME280;7801;48.124;11.590;2022-11-25T08:26:34;95472.97;;;5.15;85.60
15405;BME280;7801;48.124;11.590;2022-11-25T08:29:03;95471.00;;;5.01;85.76
15405;BME280;7801;48.124;11.590;2022-11-25T08:31:40;95466.31;;;5.08;85.60
15405;BME280;7801;48.124;11.590;2022-11-25T08:34:09;95463.19;;;5.11;85.62
15405;BME280;7801;48.124;11.590;2022-11-25T08:36:40;95477.94;;;5.12;84.92
15405;BME280;7801;48.124;11.590;2022-11-25T08:39:07;95464.13;;;5.42;84.65
15405;BME280;7801;48.124;11.590;2022-11-25T08:41:35;95466.00;;;5.51;84.34
15405;BME280;7801;48.124;11.590;2022-11-25T08:44:06;95466.00;;;5.51;83.91
15405;BME280;7801;48.124;11.590;2022-11-25T08:46:35;95470.78;;;5.60;84.05
15405;BME280;7801;48.124;11.590;2022-11-25T08:49:04;95473.22;;;5.76;83.71
15405;BME280;7801;48.124;11.590;2022-11-25T08:51:35;95481.44;;;5.95;83.29
15405;BME280;7801;48.124;11.590;2022-11-25T08:54:06;95488.56;;;6.10;82.61
15405;BME280;7801;48.124;11.590;2022-11-25T08:56:33;95504.13;;;6.27;81.70
15405;BME280;7801;48.124;11.590;2022-11-25T08:59:01;95503.91;;;6.23;82.28
15405;BME280;7801;48.124;11.590;2022-11-25T09:01:28;95503.41;;;6.57;80.61
15405;BME280;7801;48.124;11.590;2022-11-25T09:03:56;95508.41;;;6.73;79.56
15405;BME280;7801;48.124;11.590;2022-11-25T09:06:26;95511.81;;;6.38;80.53
15405;BME280;7801;48.124;11.590;2022-11-25T09:09:08;95524.16;;;6.28;81.45
15405;BME280;7801;48.124;11.590;2022-11-25T09:11:34;95525.78;;;6.44;80.23
15405;BME280;7801;48.124;11.590;2022-11-25T09:14:02;95525.22;;;6.27;80.98
15405;BME280;7801;48.124;11.590;2022-11-25T09:16:30;95534.19;;;6.36;80.65
15405;BME280;7801;48.124;11.590;2022-11-25T09:18:57;95534.75;;;6.53;80.25
15405;BME280;7801;48.124;11.590;2022-11-25T09:21:26;95527.09;;;6.46;81.36
15405;BME280;7801;48.124;11.590;2022-11-25T09:23:54;95536.88;;;6.61;79.90
15405;BME280;7801;48.124;11.590;2022-11-25T09:26:33;95545.31;;;6.58;79.34
15405;BME280;7801;48.124;11.590;2022-11-25T09:29:02;95544.25;;;6.59;79.18
15405;BME280;7801;48.124;11.590;2022-11-25T09:31:29;95547.94;;;6.78;79.36
15405;BME280;7801;48.124;11.590;2022-11-25T09:33:57;95546.88;;;6.74;79.68
15405;BME280;7801;48.124;11.590;2022-11-25T09:36:24;95552.16;;;6.79;78.89
15405;BME280;7801;48.124;11.590;2022-11-25T09:38:51;95547.16;;;6.73;80.11
15405;BME280;7801;48.124;11.590;2022-11-25T09:47:46;95538.47;;;6.82;80.69
15405;BME280;7801;48.124;11.590;2022-11-25T09:56:11;95537.94;;;7.06;79.71
15405;BME280;7801;48.124;11.590;2022-11-25T09:58:45;95545.31;;;6.83;81.15
15405;BME280;7801;48.124;11.590;2022-11-25T10:01:16;95540.56;;;6.96;81.15
15405;BME280;7801;48.124;11.590;2022-11-25T10:04:03;95550.03;;;7.07;80.26
15405;BME280;7801;48.124;11.590;2022-11-25T10:06:54;95541.06;;;7.08;80.87
15405;BME280;7801;48.124;11.590;2022-11-25T10:09:25;95542.94;;;7.02;80.57
15405;BME280;7801;48.124;11.590;2022-11-25T10:12:02;95544.75;;;7.12;80.63
15405;BME280;7801;48.124;11.590;2022-11-25T10:14:51;95541.56;;;7.40;79.90
15405;BME280;7801;48.124;11.590;2022-11-25T10:17:37;95548.16;;;7.43;79.38
15405;BME280;7801;48.124;11.590;2022-11-25T10:20:35;95537.88;;;7.36;80.67
15405;BME280;7801;48.124;11.590;2022-11-25T10:23:31;95542.03;;;7.57;78.16
15405;BME280;7801;48.124;11.590;2022-11-25T10:26:21;95543.91;;;7.57;74.36
15405;BME280;7801;48.124;11.590;2022-11-25T10:28:55;95544.09;;;7.81;75.12
15405;BME280;7801;48.124;11.590;2022-11-25T10:31:43;95549.69;;;7.64;75.42
15405;BME280;7801;48.124;11.590;2022-11-25T10:34:33;95550.75;;;7.68;75.41
15405;BME280;7801;48.124;11.590;2022-11-25T10:37:24;95548.84;;;7.74;73.68
15405;BME280;7801;48.124;11.590;2022-11-25T10:39:51;95546.81;;;7.50;72.81
15405;BME280;7801;48.124;11.590;2022-11-25T10:42:25;95557.09;;;7.62;75.33
15405;BME280;7801;48.124;11.590;2022-11-25T10:44:53;95559.19;;;7.65;77.14
15405;BME280;7801;48.124;11.590;2022-11-25T10:50:34;95552.28;;;7.74;75.59
15405;BME280;7801;48.124;11.590;2022-11-25T10:55:37;95554.12;;;7.84;74.75
15405;BME280;7801;48.124;11.590;2022-11-25T10:58:35;95544.03;;;7.91;76.92
15405;BME280;7801;48.124;11.590;2022-11-25T11:01:21;95548.22;;;8.07;73.27
15405;BME280;7801;48.124;11.590;2022-11-25T11:04:05;95550.06;;;8.02;72.44
15405;BME280;7801;48.124;11.590;2022-11-25T11:06:42;95544.28;;;7.94;75.60
15405;BME280;7801;48.124;11.590;2022-11-25T11:09:35;95545.59;;;8.02;74.87
15405;BME280;7801;48.124;11.590;2022-11-25T11:12:27;95540.75;;;8.14;75.58
15405;BME280;7801;48.124;11.590;2022-11-25T11:15:23;95530.97;;;8.20;72.35
15405;BME280;7801;48.124;11.590;2022-11-25T11:17:50;95529.06;;;8.31;70.50
15405;BME280;7801;48.124;11.590;2022-11-25T11:20:27;95536.75;;;8.27;71.09
15405;BME280;7801;48.124;11.590;2022-11-25T11:23:08;95545.28;;;8.58;70.54
15405;BME280;7801;48.124;11.590;2022-11-25T11:25:39;95539.16;;;8.68;70.64
15405;BME280;7801;48.124;11.590;2022-11-25T11:28:31;95534.13;;;8.71;69.20
15405;BME280;7801;48.124;11.590;2022-11-25T11:31:24;95529.94;;;8.94;68.65
15405;BME280;7801;48.124;11.590;2022-11-25T11:39:49;95531.66;;;9.14;69.54
15405;BME280;7801;48.124;11.590;2022-11-25T11:45:49;95531.16;;;9.12;70.62
15405;BME280;7801;48.124;11.590;2022-11-25T11:51:48;95528.34;;;9.27;70.33
15405;BME280;7801;48.124;11.590;2022-11-25T11:54:50;95524.91;;;9.26;71.10
15405;BME280;7801;48.124;11.590;2022-11-25T12:00:19;95520.88;;;9.34;70.35
15405;BME280;7801;48.124;11.590;2022-11-25T12:03:10;95521.94;;;9.57;69.82
15405;BME280;7801;48.124;11.590;2022-11-25T12:05:40;95514.19;;;9.65;69.72
15405;BME280;7801;48.124;11.590;2022-11-25T12:08:25;95520.06;;;9.81;68.34
15405;BME280;7801;48.124;11.590;2022-11-25T12:10:57;95516.78;;;9.71;70.12
15405;BME280;7801;48.124;11.590;2022-11-25T12:13:44;95507.62;;;9.82;67.77
15405;BME280;7801;48.124;11.590;2022-11-25T12:16:38;95514.34;;;9.74;67.54
15405;BME280;7801;48.124;11.590;2022-11-25T12:19:29;95510.78;;;9.84;68.61
15405;BME280;7801;48.124;11.590;2022-11-25T12:22:55;95507.62;;;9.82;66.27
15405;BME280;7801;48.124;11.590;2022-11-25T12:25:33;95516.31;;;9.87;66.62
15405;BME280;7801;48.124;11.590;2022-11-25T12:28:15;95508.72;;;9.99;64.92
15405;BME280;7801;48.124;11.590;2022-11-25T12:33:25;95518.97;;;9.87;67.49
15405;BME280;7801;48.124;11.590;2022-11-25T12:36:10;95504.87;;;9.92;66.96
15405;BME280;7801;48.124;11.590;2022-11-25T12:39:01;95509.59;;;9.95;64.97
15405;BME280;7801;48.124;11.590;2022-11-25T12:41:51;95507.31;;;10.07;64.82
15405;BME280;7801;48.124;11.590;2022-11-25T12:44:36;95507.59;;;10.06;64.86
15405;BME280;7801;48.124;11.590;2022-11-25T12:47:09;95503.97;;;10.20;64.96
15405;BME280;7801;48.124;11.590;2022-11-25T12:49:45;95511.31;;;10.28;63.37
15405;BME280;7801;48.124;11.590;2022-11-25T12:52:36;95515.03;;;10.27;63.98
15405;BME280;7801;48.124;11.590;2022-11-25T12:55:23;95510.78;;;10.26;64.51
15405;BME280;7801;48.124;11.590;2022-11-25T13:03:55;95518.03;;;10.40;64.00
15405;BME280;7801;48.124;11.590;2022-11-25T13:10:05;95513.31;;;10.37;64.51
15405;BME280;7801;48.124;11.590;2022-11-25T13:15:47;95509.09;;;10.54;65.96
15405;BME280;7801;48.124;11.590;2022-11-25T13:18:21;95508.06;;;10.50;64.71
15405;BME280;7801;48.124;11.590;2022-11-25T13:21:04;95514.38;;;10.54;66.19
15405;BME280;7801;48.124;11.590;2022-11-25T13:24:01;95518.03;;;10.58;64.50
15405;BME280;7801;48.124;11.590;2022-11-25T13:26:44;95519.97;;;10.72;63.70
15405;BME280;7801;48.124;11.590;2022-11-25T13:37:55;95523.16;;;10.87;64.59
15405;BME280;7801;48.124;11.590;2022-11-25T13:40:33;95517.31;;;11.04;64.17
15405;BME280;7801;48.124;11.590;2022-11-25T13:43:18;95521.75;;;11.09;65.75
15405;BME280;7801;48.124;11.590;2022-11-25T13:45:45;95530.47;;;10.95;65.51
15405;BME280;7801;48.124;11.590;2022-11-25T13:48:32;95523.31;;;10.96;64.91
15405;BME280;7801;48.124;11.590;2022-11-25T13:51:17;95525.88;;;11.01;64.62
15405;BME280;7801;48.124;11.590;2022-11-25T13:54:00;95529.22;;;11.07;63.78
15405;BME280;7801;48.124;11.590;2022-11-25T13:56:33;95533.09;;;11.14;64.10
15405;BME280;7801;48.124;11.590;2022-11-25T14:01:51;95538.41;;;11.14;64.96
15405;BME280;7801;48.124;11.590;2022-11-25T14:04:52;95540.97;;;11.19;65.77
15405;BME280;7801;48.124;11.590;2022-11-25T14:25:30;95563.09;;;11.15;65.79
15405;BME280;7801;48.124;11.590;2022-11-25T14:28:07;95560.22;;;11.11;66.91
15405;BME280;7801;48.124;11.590;2022-11-25T14:30:47;95573.19;;;11.13;66.23
15405;BME280;7801;48.124;11.590;2022-11-25T14:33:17;95566.16;;;11.22;66.36
15405;BME280;7801;48.124;11.590;2022-11-25T14:35:54;95575.69;;;11.23;67.30
15405;BME280;7801;48.124;11.590;2022-11-25T14:38:28;95575.22;;;11.02;68.85
15405;BME280;7801;48.124;11.590;2022-11-25T14:41:04;95588.47;;;11.02;68.74
15405;BME280;7801;48.124;11.590;2022-11-25T14:43:38;95600.97;;;11.01;70.02
15405;BME280;7801;48.124;11.590;2022-11-25T14:46:13;95607.06;;;11.02;72.19
15405;BME280;7801;48.124;11.590;2022-11-25T14:48:42;95614.25;;;11.01;73.79
15405;BME280;7801;48.124;11.590;2022-11-25T14:51:10;95622.44;;;10.86;75.82
15405;BME280;7801;48.124;11.590;2022-11-25T14:53:46;95620.44;;;10.59;78.28
15405;BME280;7801;48.124;11.590;2022-11-25T14:56:20;95621.25;;;10.36;79.95
15405;BME280;7801;48.124;11.590;2022-11-25T14:58:47;95626.84;;;10.35;81.21
15405;BME280;7801;48.124;11.590;2022-11-25T15:01:25;95637.56;;;10.24;83.26
15405;BME280;7801;48.124;11.590;2022-11-25T15:04:00;95643.41;;;9.97;84.70